Time;durP1;ratioP1;P1;durP2;ratioP2;P2;SDS_P1;SDS_P2;PMS_P1;PMS_P2;Temp;Humidity;BMP_temperature;BMP_pressure;BME280_temperature;BME280_humidity;BME280_pressure;Samples;Min_cycle;Max_cycle;Signal;HPM_P1;HPM_P2
2021/04/16 00:03:27;;;;;;;3.00;0.90;;;;;;;-146.18;100.00;67994.34;9992860;29;20158;-69
2021/04/16 00:08:33;;;;;;;4.15;1.35;;;;;;;-146.18;100.00;67994.34;10000596;29;20444;-68
2021/04/16 00:13:29;;;;;;;5.72;1.50;;;;;;;-146.18;100.00;67994.34;9998423;29;20546;-68
2021/04/16 00:18:28;;;;;;;4.20;1.10;;;;;;;-146.18;100.00;67994.34;9994787;29;20055;-67
2021/04/16 00:23:26;;;;;;;3.47;1.30;;;;;;;-146.18;100.00;67994.34;10001160;29;20054;-68
2021/04/16 00:28:22;;;;;;;2.97;0.77;;;;;;;-146.18;100.00;67994.34;10009142;29;20044;-67
2021/04/16 00:33:18;;;;;;;3.88;0.90;;;;;;;-146.18;100.00;67994.34;9996091;29;20052;-66
2021/04/16 00:38:21;;;;;;;4.63;0.88;;;;;;;-146.18;100.00;67994.34;9997448;29;20048;-67
2021/04/16 00:43:20;;;;;;;4.45;1.02;;;;;;;-146.18;100.00;67994.34;9996918;29;20112;-69
2021/04/16 00:48:54;;;;;;;6.05;1.83;;;;;;;-146.18;100.00;67994.34;9996548;29;20040;-67
2021/04/16 00:53:50;;;;;;;4.30;0.90;;;;;;;-146.18;100.00;67994.34;9980494;29;20514;-66
2021/04/16 00:58:46;;;;;;;4.95;1.60;;;;;;;-146.18;100.00;67994.34;9998332;29;20118;-67
2021/04/16 01:03:42;;;;;;;6.22;1.50;;;;;;;-146.18;100.00;67994.34;9996987;29;20719;-67
2021/04/16 01:08:39;;;;;;;3.45;1.10;;;;;;;-146.18;100.00;67994.34;9999102;29;20122;-68
2021/04/16 01:13:37;;;;;;;4.70;1.40;;;;;;;-146.18;100.00;67994.34;10002367;29;20059;-68
2021/04/16 01:18:37;;;;;;;3.97;1.10;;;;;;;-146.18;100.00;67994.34;10004261;29;20835;-67
2021/04/16 01:24:09;;;;;;;4.50;1.30;;;;;;;-146.18;100.00;67994.34;10000255;29;20048;-67
2021/04/16 01:29:06;;;;;;;5.60;1.40;;;;;;;-146.18;100.00;67994.34;10002010;29;20566;-68
2021/04/16 01:34:03;;;;;;;4.18;1.33;;;;;;;-146.18;100.00;67994.34;10001776;29;20110;-67
2021/04/16 01:39:00;;;;;;;6.05;1.45;;;;;;;-146.18;100.00;67994.34;10000143;29;20597;-68
2021/04/16 01:44:00;;;;;;;3.60;1.10;;;;;;;-146.18;100.00;67994.34;9994238;29;20111;-68
2021/04/16 01:48:59;;;;;;;4.88;1.75;;;;;;;-146.18;100.00;67994.34;9992626;29;20577;-68
2021/04/16 01:54:16;;;;;;;4.53;1.10;;;;;;;-146.18;100.00;67994.34;10015389;29;20451;-67
2021/04/16 01:59:23;;;;;;;6.07;1.38;;;;;;;-146.18;100.00;67994.34;9994992;29;20040;-67
2021/04/16 02:04:21;;;;;;;6.57;1.52;;;;;;;-146.18;100.00;67994.34;9996108;29;20103;-68
2021/04/16 02:09:23;;;;;;;6.63;1.77;;;;;;;-146.18;100.00;67994.34;9989685;29;20123;-68
2021/04/16 02:14:23;;;;;;;4.25;1.30;;;;;;;-146.18;100.00;67994.34;9996603;29;20048;-68
2021/04/16 02:19:20;;;;;;;3.88;1.20;;;;;;;-146.18;100.00;67994.34;10002351;29;20071;-68
2021/04/16 02:24:16;;;;;;;4.43;1.60;;;;;;;-146.18;100.00;67994.34;10006616;29;20122;-68
2021/04/16 02:29:15;;;;;;;6.47;1.83;;;;;;;-146.18;100.00;67994.34;9991499;29;20047;-67
2021/04/16 02:34:23;;;;;;;5.50;2.10;;;;;;;-146.18;100.00;67994.34;9999094;29;20473;-67
2021/04/16 02:39:20;;;;;;;7.30;2.03;;;;;;;-146.18;100.00;67994.34;9992774;29;20044;-67
2021/04/16 02:44:17;;;;;;;7.25;1.58;;;;;;;-146.18;100.00;67994.34;10000672;29;20044;-67
2021/04/16 02:49:13;;;;;;;5.72;1.58;;;;;;;-146.18;100.00;67994.34;9997698;29;20076;-67
2021/04/16 02:54:09;;;;;;;4.85;1.63;;;;;;;-146.18;100.00;67994.34;9998703;29;20464;-67
2021/04/16 02:59:05;;;;;;;6.30;1.92;;;;;;;-146.18;100.00;67994.34;9994703;29;20502;-68
2021/04/16 03:04:02;;;;;;;5.53;1.50;;;;;;;-146.18;100.00;67994.34;9998277;29;20143;-68
2021/04/16 03:09:01;;;;;;;4.65;1.77;;;;;;;-146.18;100.00;67994.34;10000392;29;20088;-68
2021/04/16 03:13:57;;;;;;;4.97;1.65;;;;;;;-146.18;100.00;67994.34;9999689;29;20095;-67
2021/04/16 03:18:57;;;;;;;4.57;1.98;;;;;;;-146.18;100.00;67994.34;10009176;29;20040;-67
2021/04/16 03:23:53;;;;;;;5.03;1.58;;;;;;;-146.18;100.00;67994.34;9988599;29;20052;-67
2021/04/16 03:28:57;;;;;;;4.45;1.98;;;;;;;-146.18;100.00;67994.34;9995168;29;20499;-68
2021/04/16 03:33:55;;;;;;;5.03;1.48;;;;;;;-146.18;100.00;67994.34;9999206;29;20067;-68
2021/04/16 03:38:52;;;;;;;5.90;1.80;;;;;;;-146.18;100.00;67994.34;10003498;29;20169;-68
2021/04/16 03:43:48;;;;;;;6.50;2.08;;;;;;;-146.18;100.00;67994.34;9993378;29;20052;-65
2021/04/16 03:48:44;;;;;;;5.45;2.17;;;;;;;-146.18;100.00;67994.34;10008179;29;20044;-66
2021/04/16 03:53:41;;;;;;;5.63;2.13;;;;;;;-146.18;100.00;67994.34;10000117;29;20505;-68
2021/04/16 03:58:38;;;;;;;6.20;1.73;;;;;;;-146.18;100.00;67994.34;9994068;29;20166;-69
2021/04/16 04:03:34;;;;;;;4.07;1.63;;;;;;;-146.18;100.00;67994.34;10018280;29;20142;-69
2021/04/16 04:08:33;;;;;;;4.18;1.80;;;;;;;-146.18;100.00;67994.34;10003153;29;20040;-69
2021/04/16 04:13:30;;;;;;;6.38;2.38;;;;;;;-146.18;100.00;67994.34;9994895;29;20479;-68
2021/04/16 04:18:27;;;;;;;5.63;2.25;;;;;;;-146.18;100.00;67994.34;9986562;29;20457;-68
2021/04/16 04:23:24;;;;;;;4.53;1.70;;;;;;;-146.18;100.00;67994.34;9992492;29;20066;-69
2021/04/16 04:28:20;;;;;;;5.80;2.25;;;;;;;-146.18;100.00;67994.34;9979114;29;20060;-68
2021/04/16 04:33:16;;;;;;;7.50;1.98;;;;;;;-146.18;100.00;67994.34;10011172;29;20052;-69
2021/04/16 04:38:12;;;;;;;4.35;2.00;;;;;;;-146.18;100.00;67994.34;9994381;29;20529;-68
2021/04/16 04:43:09;;;;;;;4.47;2.17;;;;;;;-146.18;100.00;67994.34;9991121;29;20056;-68
2021/04/16 04:48:05;;;;;;;6.88;2.30;;;;;;;-146.18;100.00;67994.34;10000599;29;20179;-68
2021/04/16 04:53:02;;;;;;;7.72;2.58;;;;;;;-146.18;100.00;67994.34;9995138;29;20048;-68
2021/04/16 04:57:58;;;;;;;5.47;2.42;;;;;;;-146.18;100.00;67994.34;10000818;29;20104;-67
2021/04/16 05:02:55;;;;;;;5.32;2.25;;;;;;;-146.18;100.00;67994.34;10013972;29;20044;-67
2021/04/16 05:07:51;;;;;;;6.20;2.38;;;;;;;-146.18;100.00;67994.34;10003400;29;20404;-67
2021/04/16 05:12:48;;;;;;;8.93;2.25;;;;;;;-146.18;100.00;67994.34;9999988;29;20044;-67
2021/04/16 05:17:44;;;;;;;7.60;2.50;;;;;;;-146.18;100.00;67994.34;10015226;29;20047;-68
2021/04/16 05:22:41;;;;;;;8.45;2.70;;;;;;;-146.18;100.00;67994.34;10001581;29;20079;-69
2021/04/16 05:27:37;;;;;;;5.30;2.33;;;;;;;-146.18;100.00;67994.34;9998033;29;20048;-67
2021/04/16 05:32:33;;;;;;;4.90;2.50;;;;;;;-146.18;100.00;67994.34;9999823;29;20044;-67
2021/04/16 05:37:29;;;;;;;8.38;2.50;;;;;;;-146.18;100.00;67994.34;9996086;29;20095;-67
2021/04/16 05:42:25;;;;;;;7.53;2.85;;;;;;;-146.18;100.00;67994.34;10007057;29;20100;-67
2021/04/16 05:47:21;;;;;;;5.85;2.92;;;;;;;-146.18;100.00;67994.34;9994909;29;20433;-64
2021/04/16 05:52:18;;;;;;;6.75;2.95;;;;;;;-146.18;100.00;67994.34;9998125;29;20047;-67
2021/04/16 05:57:14;;;;;;;10.18;3.35;;;;;;;-146.18;100.00;67994.34;10002274;29;20717;-66
2021/04/16 06:02:28;;;;;;;7.88;3.08;;;;;;;-146.18;100.00;67994.34;10002860;29;20051;-68
2021/04/16 06:07:25;;;;;;;6.63;3.15;;;;;;;-146.18;100.00;67994.34;9997087;29;20111;-68
2021/04/16 06:12:22;;;;;;;10.25;3.42;;;;;;;-146.18;100.00;67994.34;10002849;29;20056;-64
2021/04/16 06:17:19;;;;;;;10.07;3.75;;;;;;;-146.18;100.00;67994.34;9998285;29;20044;-65
2021/04/16 06:22:18;;;;;;;8.40;3.47;;;;;;;-146.18;100.00;67994.34;10005408;29;20108;-68
2021/04/16 06:27:14;;;;;;;9.45;4.10;;;;;;;-146.18;100.00;67994.34;9994132;29;20056;-70
2021/04/16 06:32:14;;;;;;;8.65;3.40;;;;;;;-146.18;100.00;67994.34;9995959;29;20443;-70
2021/04/16 06:37:10;;;;;;;9.32;4.10;;;;;;;-146.18;100.00;67994.34;9995273;29;20051;-66
2021/04/16 06:42:14;;;;;;;7.75;3.30;;;;;;;-146.18;100.00;67994.34;10014819;29;20096;-67
2021/04/16 06:47:26;;;;;;;7.35;3.38;;;;;;;-146.18;100.00;67994.34;10005446;29;20040;-69
2021/04/16 06:52:29;;;;;;;9.43;3.97;;;;;;;-146.18;100.00;67994.34;10013934;29;20051;-69
2021/04/16 06:57:41;;;;;;;7.70;3.55;;;;;;;-146.18;100.00;67994.34;10003095;29;20082;-68
2021/04/16 07:02:45;;;;;;;11.55;3.40;;;;;;;-146.18;100.00;67994.34;10000820;29;20047;-66
2021/04/16 07:07:45;;;;;;;9.20;3.50;;;;;;;-146.18;100.00;67994.34;10000425;29;20139;-69
2021/04/16 07:12:42;;;;;;;8.05;3.20;;;;;;;-146.18;100.00;67994.34;10003807;29;20462;-70
2021/04/16 07:17:41;;;;;;;9.23;3.33;;;;;;;-146.18;100.00;67994.34;10000717;29;20048;-65
2021/04/16 07:22:44;;;;;;;11.70;2.90;;;;;;;-146.18;100.00;67994.34;10000437;29;20056;-67
2021/04/16 07:27:50;;;;;;;6.13;2.33;;;;;;;-146.18;100.00;67994.34;10001587;29;20069;-67
2021/04/16 07:32:50;;;;;;;11.25;2.70;;;;;;;-146.18;100.00;67994.34;10005347;29;20051;-67
2021/04/16 07:37:58;;;;;;;8.93;2.35;;;;;;;-146.18;100.00;67994.34;9995976;29;20111;-68
2021/04/16 07:43:04;;;;;;;4.65;1.70;;;;;;;-146.18;100.00;67994.34;9993387;29;20055;-68
2021/04/16 07:48:18;;;;;;;6.80;1.92;;;;;;;-146.18;100.00;67994.34;9993705;29;20040;-67
2021/04/16 07:53:33;;;;;;;;;;;;;;;-146.18;100.00;67994.34;9992865;29;20075;-67
2021/04/16 07:58:32;;;;;;;4.88;1.70;;;;;;;-146.18;100.00;67994.34;9993583;29;19975;-67
2021/04/16 08:03:42;;;;;;;8.98;1.45;;;;;;;-146.18;100.00;67994.34;9993019;29;20072;-67
2021/04/16 08:08:45;;;;;;;5.05;1.30;;;;;;;-146.18;100.00;67994.34;9993371;29;20385;-66
2021/04/16 08:13:45;;;;;;;3.70;1.00;;;;;;;-146.18;100.00;67994.34;10000111;29;20119;-67
2021/04/16 08:18:46;;;;;;;4.15;0.90;;;;;;;-146.18;100.00;67994.34;10008902;29;20048;-67
2021/04/16 08:23:54;;;;;;;2.33;0.77;;;;;;;-146.18;100.00;67994.34;9992654;29;20056;-67
2021/04/16 08:28:59;;;;;;;5.13;1.30;;;;;;;-146.18;100.00;67994.34;10000117;29;20047;-69
2021/04/16 08:34:08;;;;;;;3.33;1.10;;;;;;;-146.18;100.00;67994.34;9996133;29;20579;-67
2021/04/16 08:39:15;;;;;;;4.28;1.23;;;;;;;-146.18;100.00;67994.34;10001686;29;20087;-66
2021/04/16 08:44:11;;;;;;;3.70;0.95;;;;;;;-146.18;100.00;67994.34;9993319;29;20047;-65
2021/04/16 08:49:55;;;;;;;;;;;;;;;;;;;;;
2021/04/16 09:01:25;;;;;;;6.95;1.38;;;;;;;-146.18;100.00;67994.34;9946660;29;20059;-69
2021/04/16 09:06:56;;;;;;;4.38;1.00;;;;;;;-146.18;100.00;67994.34;9992786;29;20940;-67
2021/04/16 09:11:53;;;;;;;1.98;0.70;;;;;;;-146.18;100.00;67994.34;9990326;29;20962;-69
2021/04/16 09:16:59;;;;;;;6.40;1.42;;;;;;;-146.18;100.00;67994.34;9996312;29;20055;-69
2021/04/16 09:22:02;;;;;;;3.00;1.00;;;;;;;-146.18;100.00;67994.34;9992534;29;20052;-67
2021/04/16 09:27:12;;;;;;;;;;;;;;;;;;;;;
2021/04/16 09:32:33;;;;;;;2.65;0.70;;;;;;;-146.18;100.00;67994.34;9989642;29;20074;-67
2021/04/16 09:37:34;;;;;;;5.07;1.20;;;;;;;-146.18;100.00;67994.34;9981171;29;20433;-66
2021/04/16 09:42:50;;;;;;;2.58;0.70;;;;;;;-146.18;100.00;67994.34;9988351;29;20055;-67
2021/04/16 09:47:56;;;;;;;2.03;0.65;;;;;;;-146.18;100.00;67994.34;10002623;29;20131;-66
2021/04/16 09:53:54;;;;;;;1.40;0.65;;;;;;;-146.18;100.00;67994.34;10000635;29;20052;-66
2021/04/16 09:58:53;;;;;;;3.15;0.60;;;;;;;-146.18;100.00;67994.34;9966871;29;20048;-66
2021/04/16 10:03:54;;;;;;;1.33;0.50;;;;;;;-146.18;100.00;67994.34;10003006;29;20054;-68
2021/04/16 10:09:40;;;;;;;2.58;0.80;;;;;;;-146.18;100.00;67994.34;9997208;29;20053;-65
2021/04/16 10:14:47;;;;;;;1.05;0.50;;;;;;;-146.18;100.00;67994.34;9996192;29;20048;-69
2021/04/16 10:20:07;;;;;;;3.47;0.80;;;;;;;-146.18;100.00;67994.34;10012895;29;20151;-68
2021/04/16 12:42:30;;;;;;;3.17;1.02;;;;;;;-146.18;100.00;67994.34;9990916;29;20052;-65
2021/04/16 12:47:41;;;;;;;3.20;0.80;;;;;;;-146.18;100.00;67994.34;9998439;29;20412;-66
2021/04/16 12:53:27;;;;;;;;;;;;;;;;;;;;;
2021/04/16 12:58:33;;;;;;;4.65;1.83;;;;;;;-146.18;100.00;67994.34;9988468;29;20136;-66
2021/04/16 13:03:36;;;;;;;4.00;1.20;;;;;;;-146.18;100.00;67994.34;9988854;29;20095;-66
2021/04/16 13:09:06;;;;;;;;;;;;;;;-146.18;100.00;67994.34;9995422;29;20044;-66
2021/04/16 13:14:22;;;;;;;5.22;1.80;;;;;;;-146.18;100.00;67994.34;10000959;29;19958;-66
2021/04/16 13:19:37;;;;;;;4.38;1.27;;;;;;;-146.18;100.00;67994.34;10001959;29;20135;-67
2021/04/16 13:24:35;;;;;;;4.05;1.20;;;;;;;-146.18;100.00;67994.34;10006500;29;21324;-66
2021/04/16 13:30:07;;;;;;;;;;;;;;;;;;;;;
2021/04/16 13:35:20;;;;;;;3.90;1.40;;;;;;;-146.18;100.00;67994.34;9994588;29;20134;-66
2021/04/16 13:40:17;;;;;;;3.35;1.15;;;;;;;-146.18;100.00;67994.34;10003265;29;20044;-66
2021/04/16 13:45:15;;;;;;;3.65;1.17;;;;;;;-146.18;100.00;67994.34;10016216;29;20146;-67
2021/04/16 13:50:14;;;;;;;5.53;1.17;;;;;;;-146.18;100.00;67994.34;10002675;29;20442;-68
2021/04/16 13:55:13;;;;;;;4.80;1.20;;;;;;;-146.18;100.00;67994.34;10002173;29;20051;-67
2021/04/16 14:00:16;;;;;;;8.00;1.10;;;;;;;-146.18;100.00;67994.34;9994971;29;20056;-67
2021/04/16 14:05:21;;;;;;;4.18;1.08;;;;;;;-146.18;100.00;67994.34;10002103;29;20526;-66
2021/04/16 14:10:21;;;;;;;4.07;1.00;;;;;;;-146.18;100.00;67994.34;10014064;29;20048;-68
2021/04/16 14:15:29;;;;;;;5.97;1.33;;;;;;;-146.18;100.00;67994.34;9999225;29;20051;-66
2021/04/16 14:20:30;;;;;;;3.03;0.95;;;;;;;-146.18;100.00;67994.34;9996267;29;20100;-65
2021/04/16 14:25:33;;;;;;;4.15;0.90;;;;;;;-146.18;100.00;67994.34;9989726;29;20052;-67
2021/04/16 14:30:32;;;;;;;4.90;1.30;;;;;;;-146.18;100.00;67994.34;10011899;29;20048;-67
2021/04/16 14:35:30;;;;;;;3.15;0.90;;;;;;;-146.18;100.00;67994.34;9997403;29;20127;-67
2021/04/16 14:40:31;;;;;;;3.00;1.20;;;;;;;-146.18;100.00;67994.34;10000514;29;20537;-68
2021/04/16 14:45:31;;;;;;;3.20;1.10;;;;;;;-146.18;100.00;67994.34;9993928;29;20209;-67
2021/04/16 14:50:31;;;;;;;4.20;1.20;;;;;;;-146.18;100.00;67994.34;9996814;29;20116;-68
2021/04/16 14:55:33;;;;;;;4.40;1.15;;;;;;;-146.18;100.00;67994.34;9997969;29;20151;-68
2021/04/16 15:00:33;;;;;;;6.27;1.07;;;;;;;-146.18;100.00;67994.34;9991027;29;20103;-68
2021/04/16 15:05:29;;;;;;;4.65;1.05;;;;;;;-146.18;100.00;67994.34;9992363;29;20048;-68
2021/04/16 15:10:28;;;;;;;4.22;0.90;;;;;;;-146.18;100.00;67994.34;10003561;29;20056;-68
2021/04/16 15:15:36;;;;;;;7.10;1.55;;;;;;;-146.18;100.00;67994.34;10002596;29;20772;-68
2021/04/16 15:20:33;;;;;;;4.32;1.48;;;;;;;-146.18;100.00;67994.34;10000390;29;20111;-67
2021/04/16 15:25:29;;;;;;;5.10;1.15;;;;;;;-146.18;100.00;67994.34;9993557;29;20103;-67
2021/04/16 15:30:31;;;;;;;3.88;1.10;;;;;;;-146.18;100.00;67994.34;9991845;29;20127;-67
2021/04/16 15:46:12;;;;;;;3.95;1.13;;;;;;;-146.18;100.00;67994.34;9996931;29;20058;-67
2021/04/16 15:51:12;;;;;;;4.70;0.85;;;;;;;-146.18;100.00;67994.34;9992383;29;20116;-67
2021/04/16 15:56:09;;;;;;;2.30;0.80;;;;;;;-146.18;100.00;67994.34;9990006;29;20056;-67
2021/04/16 16:01:09;;;;;;;2.90;0.90;;;;;;;-146.18;100.00;67994.34;9995207;29;20589;-67
2021/04/16 16:06:06;;;;;;;3.38;1.10;;;;;;;-146.18;100.00;67994.34;9988485;29;20048;-66
2021/04/16 16:11:02;;;;;;;7.28;1.27;;;;;;;-146.18;100.00;67994.34;9986489;29;20063;-67
2021/04/16 16:16:00;;;;;;;3.60;1.00;;;;;;;-146.18;100.00;67994.34;9989508;29;20510;-67
2021/04/16 16:20:56;;;;;;;4.20;1.13;;;;;;;-146.18;100.00;67994.34;9982902;29;20463;-68
2021/04/16 16:25:52;;;;;;;2.53;0.80;;;;;;;-146.18;100.00;67994.34;9994388;29;20048;-66
2021/04/16 16:31:01;;;;;;;3.60;1.00;;;;;;;-146.18;100.00;67994.34;9990851;29;20683;-66
2021/04/16 16:36:18;;;;;;;4.95;1.55;;;;;;;-146.18;100.00;67994.34;9982481;29;20044;-66
2021/04/16 16:41:15;;;;;;;5.65;1.40;;;;;;;-146.18;100.00;67994.34;9995822;29;20052;-66
2021/04/16 16:46:17;;;;;;;4.55;1.20;;;;;;;-146.18;100.00;67994.34;9992403;29;20060;-66
2021/04/16 16:51:17;;;;;;;5.50;1.43;;;;;;;-146.18;100.00;67994.34;9990639;29;20057;-66
2021/04/16 16:56:17;;;;;;;4.80;1.65;;;;;;;-146.18;100.00;67994.34;9991743;29;20407;-65
2021/04/16 17:01:26;;;;;;;6.38;2.30;;;;;;;-146.18;100.00;67994.34;9994398;29;20048;-65
2021/04/16 17:06:26;;;;;;;5.55;1.73;;;;;;;-146.18;100.00;67994.34;9996820;29;20040;-66
2021/04/16 17:11:26;;;;;;;7.85;2.92;;;;;;;-146.18;100.00;67994.34;10005536;29;20588;-65
2021/04/16 17:16:22;;;;;;;7.65;2.47;;;;;;;-146.18;100.00;67994.34;9995506;29;20083;-65
2021/04/16 17:21:22;;;;;;;5.13;1.88;;;;;;;-146.18;100.00;67994.34;9991996;29;20067;-65
2021/04/16 17:26:23;;;;;;;5.70;1.77;;;;;;;-146.18;100.00;67994.34;9997012;29;20079;-65
2021/04/16 17:31:19;;;;;;;5.25;1.55;;;;;;;-146.18;100.00;67994.34;9993547;29;20051;-67
2021/04/16 17:36:15;;;;;;;9.88;1.90;;;;;;;-146.18;100.00;67994.34;9988558;29;20047;-65
2021/04/16 17:41:18;;;;;;;4.63;1.50;;;;;;;-146.18;100.00;67994.34;9991677;29;20080;-65
2021/04/16 17:46:19;;;;;;;6.25;1.92;;;;;;;-146.18;100.00;67994.34;9995274;29;20111;-67
2021/04/16 17:51:28;;;;;;;7.07;2.78;;;;;;;-146.18;100.00;67994.34;9993968;29;20096;-67
2021/04/16 17:56:26;;;;;;;6.07;2.03;;;;;;;-146.18;100.00;67994.34;10008942;29;20080;-63
2021/04/16 18:01:28;;;;;;;4.43;1.60;;;;;;;-146.18;100.00;67994.34;10001945;29;20044;-67
2021/04/16 18:06:28;;;;;;;7.32;1.63;;;;;;;-146.18;100.00;67994.34;9984751;29;20059;-68
2021/04/16 18:11:38;;;;;;;5.47;1.83;;;;;;;-146.18;100.00;67994.34;10003142;29;20048;-69
2021/04/16 18:16:34;;;;;;;6.50;1.65;;;;;;;-146.18;100.00;67994.34;9990556;29;20052;-68
2021/04/16 18:21:36;;;;;;;6.15;1.58;;;;;;;-146.18;100.00;67994.34;9997981;29;20130;-66
2021/04/16 18:26:39;;;;;;;7.25;2.67;;;;;;;-146.18;100.00;67994.34;9988892;29;20133;-68
2021/04/16 18:31:35;;;;;;;7.15;2.95;;;;;;;-146.18;100.00;67994.34;9987298;29;20099;-64
2021/04/16 18:36:38;;;;;;;7.55;2.10;;;;;;;-146.18;100.00;67994.34;9986652;29;20527;-67
2021/04/16 18:41:39;;;;;;;6.43;2.72;;;;;;;-146.18;100.00;67994.34;9983031;29;20052;-66
2021/04/16 18:46:36;;;;;;;6.55;1.50;;;;;;;-146.18;100.00;67994.34;9998202;29;20096;-67
2021/04/16 18:51:36;;;;;;;6.38;2.03;;;;;;;-146.18;100.00;67994.34;9994577;29;20076;-67
2021/04/16 18:56:39;;;;;;;7.72;2.05;;;;;;;-146.18;100.00;67994.34;9997512;29;20083;-67
2021/04/16 19:01:37;;;;;;;;;;;;;;;-146.18;100.00;67994.34;9989388;29;20403;-66
2021/04/16 19:06:37;;;;;;;8.80;1.92;;;;;;;-146.18;100.00;67994.34;9991896;29;20013;-68
2021/04/16 19:11:34;;;;;;;7.75;2.22;;;;;;;-146.18;100.00;67994.34;9986263;29;20048;-68
2021/04/16 19:16:30;;;;;;;9.73;1.88;;;;;;;-146.18;100.00;67994.34;9990397;29;20047;-73
2021/04/16 19:21:36;;;;;;;4.85;1.45;;;;;;;-146.18;100.00;67994.34;9984250;29;20135;-66
2021/04/16 19:26:32;;;;;;;5.63;2.22;;;;;;;-146.18;100.00;67994.34;9988970;29;20052;-68
2021/04/16 19:31:34;;;;;;;8.18;1.60;;;;;;;-146.18;100.00;67994.34;9987681;29;20071;-68
2021/04/16 19:36:40;;;;;;;6.57;2.50;;;;;;;-146.18;100.00;67994.34;9974440;29;20055;-66
2021/04/16 19:41:36;;;;;;;5.78;2.10;;;;;;;-146.18;100.00;67994.34;9979482;29;20051;-66
2021/04/16 19:46:33;;;;;;;9.27;2.55;;;;;;;-146.18;100.00;67994.34;9980208;29;20471;-68
2021/04/16 20:17:39;;;;;;;6.72;2.30;;;;;;;-146.18;100.00;67994.34;9993424;29;20075;-66
2021/04/16 20:22:36;;;;;;;7.68;2.20;;;;;;;-146.18;100.00;67994.34;9979573;29;20075;-66
2021/04/16 20:27:32;;;;;;;7.18;2.67;;;;;;;-146.18;100.00;67994.34;9989440;29;20047;-65
2021/04/16 20:32:35;;;;;;;11.38;3.10;;;;;;;-146.18;100.00;67994.34;9973835;29;20060;-68
2021/04/16 20:37:31;;;;;;;10.65;3.53;;;;;;;-146.18;100.00;67994.34;9978182;29;20055;-66
2021/04/16 20:42:29;;;;;;;11.80;3.78;;;;;;;-146.18;100.00;67994.34;9982719;29;20728;-67
2021/04/16 20:47:30;;;;;;;8.27;3.10;;;;;;;-146.18;100.00;67994.34;9983395;29;20096;-68
2021/04/16 20:52:34;;;;;;;9.13;3.00;;;;;;;-146.18;100.00;67994.34;9980462;29;20422;-65
2021/04/16 20:57:33;;;;;;;9.17;2.97;;;;;;;-146.18;100.00;67994.34;9976869;29;20059;-66
2021/04/16 21:02:57;;;;;;;7.50;2.63;;;;;;;-146.18;100.00;67994.34;9978356;29;20082;-65
2021/04/16 21:07:53;;;;;;;10.95;3.45;;;;;;;-146.18;100.00;67994.34;9985733;29;20055;-65
2021/04/16 21:12:49;;;;;;;6.68;3.28;;;;;;;-146.18;100.00;67994.34;9984808;29;20044;-66
2021/04/16 21:17:46;;;;;;;7.00;2.50;;;;;;;-146.18;100.00;67994.34;9993597;29;20431;-66
2021/04/16 21:22:42;;;;;;;10.15;3.42;;;;;;;-146.18;100.00;67994.34;9981860;29;20039;-67
2021/04/16 21:27:38;;;;;;;7.85;3.05;;;;;;;-146.18;100.00;67994.34;9978304;29;20043;-66
2021/04/16 21:32:44;;;;;;;9.07;2.78;;;;;;;-146.18;100.00;67994.34;9989160;29;20075;-66
2021/04/16 21:37:41;;;;;;;11.23;2.72;;;;;;;-146.18;100.00;67994.34;9974392;29;20051;-65
2021/04/16 21:42:39;;;;;;;9.45;3.05;;;;;;;-146.18;100.00;67994.34;9984798;29;20052;-65
2021/04/16 21:47:39;;;;;;;7.38;3.13;;;;;;;-146.18;100.00;67994.34;9978237;29;20052;-65
2021/04/16 21:52:39;;;;;;;8.27;3.45;;;;;;;-146.18;100.00;67994.34;9986641;29;20131;-65
2021/04/16 21:57:35;;;;;;;8.63;3.35;;;;;;;-146.18;100.00;67994.34;9995552;29;20052;-65
2021/04/16 22:02:36;;;;;;;11.15;3.58;;;;;;;-146.18;100.00;67994.34;9998842;29;20791;-63
2021/04/16 22:07:37;;;;;;;8.70;3.35;;;;;;;-146.18;100.00;67994.34;9988727;29;20048;-65
2021/04/16 22:12:41;;;;;;;10.15;4.35;;;;;;;-146.18;100.00;67994.34;9995842;29;20126;-67
2021/04/16 22:17:37;;;;;;;7.90;3.15;;;;;;;-146.18;100.00;67994.34;9991088;29;20499;-68
2021/04/16 22:22:35;;;;;;;7.53;3.28;;;;;;;-146.18;100.00;67994.34;9989306;29;20066;-67
2021/04/16 22:27:35;;;;;;;9.52;3.80;;;;;;;-146.18;100.00;67994.34;9999123;29;20047;-67
2021/04/16 22:32:32;;;;;;;9.60;3.53;;;;;;;-146.18;100.00;67994.34;10003106;29;20098;-66
2021/04/16 22:37:32;;;;;;;10.15;3.95;;;;;;;-146.18;100.00;67994.34;10016468;29;20779;-67
2021/04/16 22:42:31;;;;;;;12.52;4.20;;;;;;;-146.18;100.00;67994.34;10000379;29;20117;-66
2021/04/16 22:47:40;;;;;;;9.13;3.55;;;;;;;-146.18;100.00;67994.34;9990207;29;20466;-68
2021/04/16 22:52:42;;;;;;;8.13;3.50;;;;;;;-146.18;100.00;67994.34;9987712;29;20063;-67
2021/04/16 22:57:39;;;;;;;7.95;2.83;;;;;;;-146.18;100.00;67994.34;9993262;29;20044;-67
2021/04/16 23:02:47;;;;;;;7.40;2.92;;;;;;;-146.18;100.00;67994.34;9988931;29;20051;-67
2021/04/16 23:07:44;;;;;;;9.02;4.05;;;;;;;-146.18;100.00;67994.34;10010736;29;20046;-67
2021/04/16 23:12:40;;;;;;;8.07;3.10;;;;;;;-146.18;100.00;67994.34;9992932;29;20135;-67
2021/04/16 23:17:36;;;;;;;10.70;3.28;;;;;;;-146.18;100.00;67994.34;9995582;29;20040;-67
2021/04/16 23:22:40;;;;;;;10.23;4.07;;;;;;;-146.18;100.00;67994.34;9991717;29;20052;-67
2021/04/16 23:27:46;;;;;;;9.75;3.35;;;;;;;-146.18;100.00;67994.34;9994422;29;20063;-67
2021/04/16 23:32:43;;;;;;;8.70;3.05;;;;;;;-146.18;100.00;67994.34;10001365;29;20044;-66
2021/04/16 23:37:47;;;;;;;12.20;3.53;;;;;;;-146.18;100.00;67994.34;9997298;29;20850;-65
2021/04/16 23:42:43;;;;;;;6.53;2.28;;;;;;;-146.18;100.00;67994.34;9992379;29;20055;-65
2021/04/16 23:47:39;;;;;;;6.97;2.75;;;;;;;-146.18;100.00;67994.34;9990502;29;20071;-67
2021/04/16 23:52:38;;;;;;;8.75;3.33;;;;;;;-146.18;100.00;67994.34;9989597;29;20072;-66
2021/04/16 23:57:34;;;;;;;9.63;3.22;;;;;;;-146.18;100.00;67994.34;9990881;29;20108;-67
